KBDE/BDE METAR and TAF weather

Enter ICAO airport designator
Station Type Date Time Source
KBDE METAR 2018/04/21 10:53 UTC NOAA

KBDE 211053Z AUTO 00000KT 10SM CLR M01/M02 A3036 RMK AO2 SLP293 T10111022


Station Type Date Time Source
KBDE Decoded METAR 2018/04/21 10:53 UTC NOAA

BAUDETTE INTERNATIONAL AIRPORT, MN, United States (KBDE) 48-44N 94-37W 329M
Apr 21, 2018 - 06:53 AM EDT / 2018.04.21 1053 UTC
Wind: Calm:0
Visibility: 10 mile(s):0
Sky conditions: clear
Temperature: 30.0 F (-1.1 C)
Dew Point: 28.0 F (-2.2 C)
Relative Humidity: 92%
Pressure (altimeter): 30.36 in. Hg (1028 hPa)
ob: KBDE 211053Z AUTO 00000KT 10SM CLR M01/M02 A3036 RMK AO2 SLP293 T10111022
cycle: 11

Station Type Date Time Source
KBDE TAF UTC NOAA

Error!


Example: see airport list